createdAt,value
2022-08-03T00:02:39.592Z,46.92
2022-08-03T00:06:04.060Z,46.70
2022-08-03T00:09:07.589Z,46.98
2022-08-03T00:12:11.441Z,46.84
2022-08-03T00:15:17.125Z,46.89
2022-08-03T00:18:21.567Z,46.95
2022-08-03T00:21:25.332Z,46.85
2022-08-03T00:24:29.192Z,46.60
2022-08-03T00:27:32.923Z,46.65
2022-08-03T00:30:40.865Z,46.99
2022-08-03T00:33:59.533Z,46.62
2022-08-03T00:37:07.253Z,47.01
2022-08-03T00:40:12.835Z,46.96
2022-08-03T00:43:16.773Z,47.08
2022-08-03T00:46:22.448Z,47.02
2022-08-03T00:49:26.444Z,46.77
2022-08-03T00:52:30.293Z,47.02
2022-08-03T00:55:34.365Z,47.03
2022-08-03T00:58:38.757Z,46.61
2022-08-03T01:01:44.155Z,46.88
2022-08-03T01:04:48.077Z,46.78
2022-08-03T01:08:03.182Z,46.68
2022-08-03T01:11:13.193Z,46.81
2022-08-03T01:14:22.309Z,46.68
2022-08-03T01:17:38.701Z,47.17
2022-08-03T01:20:46.655Z,47.12
2022-08-03T01:24:08.230Z,47.06
2022-08-03T01:27:18.365Z,47.04
2022-08-03T01:30:28.647Z,46.98
2022-08-03T01:33:37.553Z,46.92
2022-08-03T01:36:45.729Z,46.81
2022-08-03T01:39:53.151Z,47.16
2022-08-03T01:43:01.577Z,47.04
2022-08-03T01:46:08.949Z,46.88
2022-08-03T01:49:14.597Z,46.79
2022-08-03T01:52:20.852Z,47.08
2022-08-03T01:55:28.328Z,47.18
2022-08-03T01:58:35.336Z,47.05
2022-08-03T02:02:31.752Z,47.06
2022-08-03T02:05:11.041Z,47.23
2022-08-03T02:08:17.394Z,46.95
2022-08-03T02:11:21.408Z,47.05
2022-08-03T02:14:25.829Z,47.11
2022-08-03T02:17:39.033Z,47.03
2022-08-03T02:20:45.629Z,46.93
2022-08-03T02:23:49.594Z,47.15
2022-08-03T02:26:56.954Z,47.48
2022-08-03T02:30:10.515Z,47.09
2022-08-03T02:33:21.058Z,47.25
2022-08-03T02:36:28.005Z,47.37
2022-08-03T02:39:37.566Z,47.40
2022-08-03T02:42:43.535Z,46.97
2022-08-03T02:45:50.432Z,47.45
2022-08-03T02:48:58.518Z,47.43
2022-08-03T02:52:05.881Z,47.11
2022-08-03T02:55:17.567Z,47.02
2022-08-03T02:58:22.360Z,47.33
2022-08-03T03:01:28.727Z,47.15
2022-08-03T03:04:35.064Z,47.07
2022-08-03T03:07:51.707Z,47.15
2022-08-03T03:10:57.665Z,47.39
2022-08-03T03:14:02.163Z,47.20
2022-08-03T03:17:07.711Z,47.34
2022-08-03T03:20:13.977Z,47.26
2022-08-03T03:23:19.676Z,47.53
2022-08-03T03:26:24.034Z,47.10
2022-08-03T03:29:28.252Z,47.16
2022-08-03T03:32:32.534Z,47.33
2022-08-03T03:35:38.839Z,47.25
2022-08-03T03:38:43.324Z,47.25
2022-08-03T03:41:47.448Z,47.27
2022-08-03T03:44:51.700Z,47.27
2022-08-03T03:47:55.955Z,47.55
2022-08-03T03:51:02.336Z,47.43
2022-08-03T03:54:07.405Z,47.24
2022-08-03T03:57:13.089Z,47.39
2022-08-03T04:00:19.592Z,47.35
2022-08-03T04:03:23.683Z,47.45
2022-08-03T04:06:46.845Z,47.13
2022-08-03T04:10:14.880Z,47.49
2022-08-03T04:13:22.166Z,47.69
2022-08-03T04:16:30.299Z,47.34
2022-08-03T04:19:39.737Z,47.53
2022-08-03T04:22:45.880Z,47.46
2022-08-03T04:25:52.779Z,47.19
2022-08-03T04:28:56.694Z,47.62
2022-08-03T04:32:03.168Z,47.42
2022-08-03T04:35:08.722Z,47.43
2022-08-03T04:38:16.819Z,47.69
2022-08-03T04:41:22.279Z,47.36
2022-08-03T04:44:28.921Z,47.60
2022-08-03T04:47:34.897Z,47.52
2022-08-03T04:50:39.053Z,47.67
2022-08-03T04:53:44.989Z,47.30
2022-08-03T04:56:48.744Z,47.40
2022-08-03T05:00:02.020Z,47.41
2022-08-03T05:03:23.574Z,47.37
2022-08-03T05:06:28.794Z,47.37
2022-08-03T05:09:50.117Z,47.31
2022-08-03T05:12:56.672Z,47.67
2022-08-03T05:16:00.465Z,47.50
2022-08-03T05:19:04.522Z,47.75
2022-08-03T05:22:08.315Z,47.32
2022-08-03T05:25:17.014Z,47.71
2022-08-03T05:28:22.962Z,47.48
2022-08-03T05:31:26.872Z,47.65
2022-08-03T05:34:30.657Z,47.56
2022-08-03T05:37:34.417Z,47.61
2022-08-03T05:40:41.044Z,47.89
2022-08-03T05:44:01.574Z,47.48
2022-08-03T05:47:05.381Z,47.37
2022-08-03T05:50:10.295Z,47.17
2022-08-03T05:53:14.078Z,47.15
2022-08-03T05:56:24.651Z,47.44
2022-08-03T05:59:38.220Z,46.97
2022-08-03T06:02:42.865Z,47.05
2022-08-03T06:06:00.093Z,47.44
2022-08-03T06:09:04.501Z,47.29
2022-08-03T06:12:13.932Z,47.08
2022-08-03T06:15:18.794Z,47.34
2022-08-03T06:18:24.053Z,47.50
2022-08-03T06:21:27.922Z,47.18
2022-08-03T06:24:31.840Z,46.89
2022-08-03T06:27:40.078Z,46.72
2022-08-03T06:30:43.765Z,46.88
2022-08-03T06:34:30.851Z,47.05
2022-08-03T06:37:12.061Z,47.13
2022-08-03T06:40:24.315Z,47.44
2022-08-03T06:43:29.889Z,47.38
2022-08-03T06:46:39.824Z,46.94
2022-08-03T06:49:43.707Z,44.89
2022-08-03T06:53:07.576Z,43.92
2022-08-03T06:56:11.391Z,42.02
2022-08-03T07:00:06.208Z,41.91
2022-08-03T07:02:40.869Z,42.18
2022-08-03T07:05:46.697Z,42.78
2022-08-03T07:08:52.941Z,42.91
2022-08-03T07:11:58.839Z,43.79
2022-08-03T07:15:05.798Z,44.08
2022-08-03T07:18:09.531Z,44.87
2022-08-03T07:21:13.320Z,45.08
2022-08-03T07:24:17.044Z,45.49
2022-08-03T07:27:20.789Z,45.79
2022-08-03T07:30:25.948Z,45.74
2022-08-03T07:33:29.734Z,45.97
2022-08-03T07:36:33.489Z,45.87
2022-08-03T07:39:38.216Z,46.42
2022-08-03T07:42:42.029Z,46.19
2022-08-03T07:45:47.108Z,46.50
2022-08-03T07:48:50.833Z,46.34
2022-08-03T07:52:08.427Z,46.73
2022-08-03T07:55:12.278Z,46.87
2022-08-03T07:58:21.983Z,46.53
2022-08-03T08:01:29.096Z,46.81
2022-08-03T08:04:32.861Z,46.83
2022-08-03T08:07:36.601Z,46.86
2022-08-03T08:10:40.422Z,46.81
2022-08-03T08:13:44.205Z,46.81
2022-08-03T08:16:49.722Z,46.70
2022-08-03T08:19:53.594Z,46.65
2022-08-03T08:23:00.270Z,46.91
2022-08-03T08:26:05.425Z,46.60
2022-08-03T08:29:09.250Z,46.65
2022-08-03T08:32:16.443Z,46.88
2022-08-03T08:35:20.789Z,46.98
2022-08-03T08:38:24.777Z,46.91
2022-08-03T08:41:32.134Z,46.96
2022-08-03T08:44:36.137Z,47.03
2022-08-03T08:47:50.862Z,46.58
2022-08-03T08:50:56.816Z,46.74
2022-08-03T08:54:04.253Z,46.63
2022-08-03T08:57:26.590Z,46.99
2022-08-03T09:00:32.694Z,47.10
2022-08-03T09:03:37.909Z,46.80
2022-08-03T09:06:50.212Z,47.00
2022-08-03T09:10:10.373Z,47.18
2022-08-03T09:13:17.140Z,47.08
2022-08-03T09:16:22.320Z,46.83
2022-08-03T09:19:27.542Z,46.82
2022-08-03T09:22:33.431Z,47.10
2022-08-03T09:25:39.579Z,46.71
2022-08-03T09:29:00.140Z,46.72
2022-08-03T09:32:06.614Z,46.72
2022-08-03T09:35:12.490Z,47.09
2022-08-03T09:38:17.589Z,46.99
2022-08-03T09:41:21.396Z,46.63
2022-08-03T09:44:35.565Z,46.93
2022-08-03T09:47:44.619Z,47.18
2022-08-03T09:50:58.775Z,46.87
2022-08-03T09:54:27.786Z,46.77
2022-08-03T09:57:31.992Z,47.06
2022-08-03T10:00:55.120Z,46.82
2022-08-03T10:04:03.570Z,46.76
2022-08-03T10:07:11.476Z,47.15
2022-08-03T10:10:29.105Z,46.72
2022-08-03T10:13:37.386Z,47.00
2022-08-03T10:16:41.673Z,47.22
2022-08-03T10:19:45.494Z,47.11
2022-08-03T10:22:50.788Z,46.95
2022-08-03T10:25:59.136Z,46.87
2022-08-03T10:29:12.381Z,47.08
2022-08-03T10:32:22.705Z,47.13
2022-08-03T10:35:27.281Z,47.15
2022-08-03T10:38:38.675Z,47.10
2022-08-03T10:41:46.382Z,46.93
2022-08-03T10:44:57.097Z,46.76
2022-08-03T10:48:01.823Z,46.85
2022-08-03T10:51:07.565Z,47.33
2022-08-03T10:55:03.218Z,46.77
2022-08-03T10:58:11.031Z,47.29
2022-08-03T11:01:15.177Z,47.09
2022-08-03T11:04:20.620Z,47.13
2022-08-03T11:07:26.939Z,47.41
2022-08-03T11:10:33.298Z,47.16
2022-08-03T11:13:37.127Z,47.21
2022-08-03T11:16:45.251Z,47.04
2022-08-03T11:19:57.749Z,47.47
2022-08-03T11:23:02.996Z,47.52
2022-08-03T11:26:16.239Z,47.01
2022-08-03T11:29:30.115Z,46.93
2022-08-03T11:32:54.150Z,47.48
2022-08-03T11:36:03.082Z,47.35
2022-08-03T11:39:17.054Z,47.16
2022-08-03T11:42:50.232Z,46.86
2022-08-03T11:45:59.383Z,47.29
2022-08-03T11:49:10.689Z,47.13
2022-08-03T11:52:15.208Z,47.15
2022-08-03T11:55:22.069Z,46.93
2022-08-03T11:59:16.885Z,47.32
2022-08-03T12:01:52.353Z,47.23
2022-08-03T12:04:58.744Z,47.13
2022-08-03T12:08:06.345Z,47.25
2022-08-03T12:11:13.045Z,47.26
2022-08-03T12:14:50.841Z,46.86
2022-08-03T12:17:43.795Z,46.96
2022-08-03T12:20:49.224Z,46.88
2022-08-03T12:23:59.058Z,46.92
2022-08-03T12:27:02.848Z,46.78
2022-08-03T12:30:09.355Z,47.25
2022-08-03T12:33:22.020Z,46.96
2022-08-03T12:36:26.069Z,47.05
2022-08-03T12:39:31.452Z,46.76
2022-08-03T12:42:37.107Z,47.51
2022-08-03T12:45:42.404Z,47.01
2022-08-03T12:49:03.700Z,46.53
2022-08-03T12:52:08.772Z,46.69
2022-08-03T12:55:20.907Z,47.16
2022-08-03T12:58:35.490Z,47.28
2022-08-03T13:01:49.131Z,47.42
2022-08-03T13:05:00.199Z,47.40
2022-08-03T13:08:04.167Z,47.06
2022-08-03T13:11:21.558Z,47.43
2022-08-03T13:14:25.402Z,47.56
2022-08-03T13:17:30.562Z,47.34
2022-08-03T13:20:34.935Z,47.41
2022-08-03T13:23:38.702Z,47.22
2022-08-03T13:26:42.476Z,47.38
2022-08-03T13:29:46.395Z,47.37
2022-08-03T13:32:51.538Z,47.36
2022-08-03T13:35:55.448Z,47.61
2022-08-03T13:38:59.190Z,47.56
2022-08-03T13:42:03.314Z,47.61
2022-08-03T13:45:09.221Z,47.64
2022-08-03T13:48:14.441Z,47.51
2022-08-03T13:51:38.305Z,47.74
2022-08-03T13:54:46.151Z,47.30
2022-08-03T13:58:04.379Z,47.63
2022-08-03T14:01:10.773Z,47.56
2022-08-03T14:04:21.882Z,47.90
2022-08-03T14:07:26.220Z,47.90
2022-08-03T14:10:30.216Z,47.68
2022-08-03T14:13:34.177Z,48.09
2022-08-03T14:16:38.584Z,47.70
2022-08-03T14:19:53.196Z,47.78
2022-08-03T14:22:57.855Z,47.66
2022-08-03T14:26:01.618Z,47.67
2022-08-03T14:29:05.996Z,47.60
2022-08-03T14:32:13.260Z,47.62
2022-08-03T14:35:18.740Z,47.80
2022-08-03T14:38:22.813Z,47.85
2022-08-03T14:41:26.703Z,47.68
2022-08-03T14:44:30.485Z,47.78
2022-08-03T14:47:34.591Z,47.76
2022-08-03T14:51:00.090Z,47.71
2022-08-03T14:54:03.856Z,47.67
2022-08-03T14:57:08.749Z,47.50
2022-08-03T15:00:13.702Z,47.51
2022-08-03T15:03:20.473Z,47.67
2022-08-03T15:06:26.021Z,47.73
2022-08-03T15:09:29.885Z,48.18
2022-08-03T15:12:33.808Z,48.00
2022-08-03T15:15:37.456Z,47.97
2022-08-03T15:18:41.240Z,47.58
2022-08-03T15:21:47.767Z,47.75
2022-08-03T15:24:51.759Z,47.61
2022-08-03T15:28:03.379Z,48.06
2022-08-03T15:31:08.402Z,47.98
2022-08-03T15:34:12.800Z,48.22
2022-08-03T15:37:18.041Z,48.01
2022-08-03T15:40:21.939Z,48.02
2022-08-03T15:43:26.221Z,48.58
2022-08-03T15:46:30.293Z,48.14
2022-08-03T15:49:34.391Z,48.04
2022-08-03T15:52:39.560Z,47.97
2022-08-03T15:55:43.845Z,48.02
2022-08-03T15:59:10.622Z,47.79
2022-08-03T16:02:11.648Z,47.84
2022-08-03T16:05:15.465Z,47.60
2022-08-03T16:08:20.673Z,47.78
2022-08-03T16:11:24.628Z,47.95
2022-08-03T16:14:32.671Z,47.64
2022-08-03T16:17:40.052Z,47.99
2022-08-03T16:20:44.853Z,47.88
2022-08-03T16:23:50.574Z,47.78
2022-08-03T16:26:55.291Z,47.90
2022-08-03T16:29:59.136Z,48.01
2022-08-03T16:33:03.002Z,48.02
2022-08-03T16:36:07.081Z,48.49
2022-08-03T16:39:12.307Z,47.98
2022-08-03T16:42:16.141Z,47.85
2022-08-03T16:45:19.948Z,47.92
2022-08-03T16:48:23.745Z,47.86
2022-08-03T16:51:27.571Z,47.90
2022-08-03T16:54:50.556Z,47.88
2022-08-03T16:58:00.047Z,48.14
2022-08-03T17:01:10.969Z,47.90
2022-08-03T17:04:27.254Z,47.88
2022-08-03T17:07:33.044Z,47.79
2022-08-03T17:10:38.910Z,47.79
2022-08-03T17:13:44.671Z,47.94
2022-08-03T17:16:52.701Z,48.04
2022-08-03T17:19:59.800Z,47.96
2022-08-03T17:23:35.473Z,48.46
2022-08-03T17:26:43.375Z,48.29
2022-08-03T17:29:50.404Z,48.15
2022-08-03T17:32:57.464Z,48.52
2022-08-03T17:36:01.967Z,48.48
2022-08-03T17:39:07.568Z,48.53
2022-08-03T17:42:29.499Z,48.65
2022-08-03T17:45:52.226Z,48.58
2022-08-03T17:48:59.199Z,48.55
2022-08-03T17:52:04.808Z,48.50
2022-08-03T17:55:54.800Z,48.31
2022-08-03T17:58:54.724Z,48.18
2022-08-03T18:02:30.329Z,48.48
2022-08-03T18:06:11.748Z,48.65
2022-08-03T18:09:05.121Z,48.51
2022-08-03T18:12:28.523Z,48.37
2022-08-03T18:15:39.032Z,48.18
2022-08-03T18:18:44.489Z,48.80
2022-08-03T18:22:03.031Z,48.82
2022-08-03T18:25:09.772Z,48.87
2022-08-03T18:28:18.891Z,48.68
2022-08-03T18:31:33.116Z,48.84
2022-08-03T18:34:53.531Z,48.96
2022-08-03T18:38:01.013Z,49.02
2022-08-03T18:41:07.082Z,48.86
2022-08-03T18:44:46.592Z,49.03
2022-08-03T18:48:05.042Z,48.88
2022-08-03T18:51:24.109Z,49.14
2022-08-03T18:54:57.273Z,48.96
2022-08-03T18:58:18.012Z,48.68
2022-08-03T19:01:59.581Z,48.85
2022-08-03T19:05:03.353Z,48.81
2022-08-03T19:08:16.460Z,48.81
2022-08-03T19:11:27.904Z,48.97
2022-08-03T19:14:41.630Z,48.98
2022-08-03T19:17:53.329Z,48.94
2022-08-03T19:20:59.846Z,48.88
2022-08-03T19:24:09.667Z,49.04
2022-08-03T19:27:15.859Z,48.66
2022-08-03T19:30:38.833Z,48.64
2022-08-03T19:33:56.056Z,48.52
2022-08-03T19:37:04.619Z,48.52
2022-08-03T19:40:12.468Z,48.49
2022-08-03T19:43:21.872Z,48.55
2022-08-03T19:46:30.849Z,48.17
2022-08-03T19:50:04.994Z,48.46
2022-08-03T19:53:11.772Z,48.48
2022-08-03T19:56:17.684Z,48.35
2022-08-03T19:59:23.592Z,48.46
2022-08-03T20:02:30.221Z,48.65
2022-08-03T20:05:44.851Z,48.77
2022-08-03T20:08:58.672Z,48.52
2022-08-03T20:12:02.891Z,48.35
2022-08-03T20:15:07.726Z,48.45
2022-08-03T20:18:16.906Z,48.48
2022-08-03T20:21:26.170Z,48.46
2022-08-03T20:24:36.223Z,48.70
2022-08-03T20:28:06.652Z,48.55
2022-08-03T20:31:08.651Z,48.83
2022-08-03T20:34:12.383Z,48.54
2022-08-03T20:37:21.452Z,48.71
2022-08-03T20:40:27.385Z,49.03
2022-08-03T20:43:31.563Z,48.96
2022-08-03T20:46:50.155Z,48.99
2022-08-03T20:49:59.530Z,48.94
2022-08-03T20:53:06.020Z,48.90
2022-08-03T20:56:11.299Z,48.90
2022-08-03T20:59:20.067Z,48.83
2022-08-03T21:02:29.602Z,48.72
2022-08-03T21:05:51.474Z,48.68
2022-08-03T21:09:03.847Z,48.84
2022-08-03T21:12:18.948Z,48.87
2022-08-03T21:16:02.402Z,49.13
2022-08-03T21:18:53.615Z,48.73
2022-08-03T21:21:58.973Z,48.82
2022-08-03T21:25:05.735Z,48.82
2022-08-03T21:28:11.348Z,48.87
2022-08-03T21:31:22.324Z,48.62
2022-08-03T21:34:31.404Z,48.75
2022-08-03T21:37:35.331Z,48.69
2022-08-03T21:40:39.710Z,48.59
2022-08-03T21:43:44.838Z,48.82
2022-08-03T21:46:51.703Z,48.72
2022-08-03T21:50:06.290Z,48.58
2022-08-03T21:53:13.170Z,48.50
2022-08-03T21:56:21.430Z,48.67
2022-08-03T21:59:26.956Z,48.58
2022-08-03T22:02:32.541Z,48.75
2022-08-03T22:05:43.529Z,48.81
2022-08-03T22:08:48.539Z,48.53
2022-08-03T22:11:54.254Z,48.73
2022-08-03T22:15:02.249Z,48.91
2022-08-03T22:18:07.754Z,48.82
2022-08-03T22:21:13.160Z,48.70
2022-08-03T22:24:19.931Z,48.61
2022-08-03T22:27:32.345Z,48.69
2022-08-03T22:30:38.462Z,48.61
2022-08-03T22:33:45.247Z,48.74
2022-08-03T22:36:49.061Z,48.86
2022-08-03T22:39:54.491Z,48.85
2022-08-03T22:42:58.616Z,48.80
2022-08-03T22:46:10.448Z,48.65
2022-08-03T22:49:17.512Z,48.62
2022-08-03T22:52:22.188Z,48.85
2022-08-03T22:55:26.127Z,48.85
2022-08-03T22:58:29.883Z,49.33
2022-08-03T23:01:39.322Z,49.65
2022-08-03T23:04:45.967Z,49.45
2022-08-03T23:07:51.963Z,49.59
2022-08-03T23:11:02.020Z,49.71
2022-08-03T23:14:10.010Z,49.63
2022-08-03T23:17:15.707Z,49.53
2022-08-03T23:20:20.382Z,49.59
2022-08-03T23:23:43.964Z,49.68
2022-08-03T23:26:49.125Z,49.61
2022-08-03T23:29:54.777Z,49.49
2022-08-03T23:33:02.317Z,49.53
2022-08-03T23:36:27.786Z,49.68
2022-08-03T23:39:31.516Z,49.57
2022-08-03T23:42:39.074Z,49.64
2022-08-03T23:45:46.135Z,49.66
2022-08-03T23:48:51.849Z,49.60
2022-08-03T23:52:07.487Z,49.61
2022-08-03T23:55:21.058Z,49.56
2022-08-03T23:58:39.615Z,49.64
